Time;durP1;ratioP1;P1;durP2;ratioP2;P2;SDS_P1;SDS_P2;PMS_P1;PMS_P2;Temp;Humidity;BMP_temperature;BMP_pressure;BME280_temperature;BME280_humidity;BME280_pressure;Samples;Min_cycle;Max_cycle;Signal;HPM_P1;HPM_P2
2022/03/31 00:00:20;;;;;;;1.37;1.13;;;;;;;11.42;47.00;100421.66;5012442;28;20456;-72
2022/03/31 00:02:46;;;;;;;2.07;1.03;;;;;;;10.92;47.28;100422.56;5028517;28;20096;-72
2022/03/31 00:05:12;;;;;;;1.33;1.23;;;;;;;11.22;46.71;100422.03;5030162;28;20439;-72
2022/03/31 00:07:53;;;;;;;1.30;1.03;;;;;;;11.24;46.27;100410.63;5029408;28;20072;-72
2022/03/31 00:10:31;;;;;;;3.60;1.10;;;;;;;11.80;45.93;100419.97;5026294;28;20033;-72
2022/03/31 00:12:58;;;;;;;1.37;1.00;;;;;;;10.91;48.27;100425.19;5013617;28;20505;-72
2022/03/31 00:15:26;;;;;;;3.07;1.00;;;;;;;10.85;47.53;100423.56;5028795;28;20025;-72
2022/03/31 00:17:52;;;;;;;1.67;1.00;;;;;;;11.02;47.33;100418.03;5029942;28;20127;-72
2022/03/31 00:23:39;;;;;;;1.37;1.03;;;;;;;10.30;48.97;100420.94;5029901;28;20532;-72
2022/03/31 00:26:05;;;;;;;1.23;0.90;;;;;;;10.62;48.26;100427.44;5028426;28;20033;-72
2022/03/31 00:28:30;;;;;;;1.00;0.90;;;;;;;11.05;46.61;100422.34;5028890;28;20385;-73
2022/03/31 00:30:57;;;;;;;0.97;0.87;;;;;;;9.82;48.82;100423.34;5029722;28;20571;-72
2022/03/31 00:33:22;;;;;;;1.20;1.10;;;;;;;11.40;45.75;100416.41;5028451;28;20111;-74
2022/03/31 00:35:47;;;;;;;3.10;0.83;;;;;;;11.41;45.45;100417.28;5030117;28;20477;-72
2022/03/31 00:38:13;;;;;;;1.07;0.77;;;;;;;11.42;45.59;100426.88;5029056;28;20021;-73
2022/03/31 00:40:38;;;;;;;1.10;1.00;;;;;;;11.14;46.62;100417.81;5028523;28;20021;-73
2022/03/31 00:43:08;;;;;;;1.03;0.97;;;;;;;11.16;46.82;100412.53;5029036;28;20609;-73
2022/03/31 00:45:46;;;;;;;1.30;1.00;;;;;;;11.35;46.15;100413.91;5031193;28;20029;-72
2022/03/31 00:48:13;;;;;;;1.90;0.87;;;;;;;10.94;45.98;100418.16;5027889;28;20126;-73
2022/03/31 00:50:39;;;;;;;3.37;1.30;;;;;;;11.30;46.09;100415.75;5029502;28;20022;-72
2022/03/31 00:53:08;;;;;;;1.80;1.10;;;;;;;10.92;48.48;100412.13;5028829;28;20132;-73
2022/03/31 00:55:35;;;;;;;0.87;0.80;;;;;;;10.30;49.92;100414.84;5030374;28;20128;-72
2022/03/31 00:58:01;;;;;;;3.10;1.27;;;;;;;10.31;49.23;100419.19;5028302;28;20034;-72
2022/03/31 01:00:27;;;;;;;1.03;0.93;;;;;;;10.92;47.34;100403.38;5044981;28;20034;-72
2022/03/31 01:02:52;;;;;;;2.40;1.23;;;;;;;10.77;48.10;100399.28;5028230;28;20028;-72
2022/03/31 01:05:18;;;;;;;0.70;0.70;;;;;;;9.21;52.12;100409.34;5029083;28;20413;-72
2022/03/31 01:07:44;;;;;;;2.10;1.33;;;;;;;10.62;48.49;100406.53;5028890;28;20025;-72
2022/03/31 01:10:11;;;;;;;1.33;0.90;;;;;;;10.68;48.10;100405.56;5027984;28;20025;-72
2022/03/31 01:12:37;;;;;;;1.13;1.00;;;;;;;10.58;49.25;100398.75;5028629;28;20033;-73
2022/03/31 01:15:20;;;;;;;1.23;1.00;;;;;;;10.32;49.33;100406.09;5029041;28;20374;-72
2022/03/31 01:17:48;;;;;;;0.85;0.85;;;;;;;10.21;50.13;100394.97;5059789;28;20029;-73
2022/03/31 01:20:16;;;;;;;1.50;0.80;;;;;;;9.05;51.42;100404.25;5030136;28;20053;-71
2022/03/31 01:22:43;;;;;;;0.60;0.60;;;;;;;9.30;51.27;100399.66;5027699;28;20072;-72
2022/03/31 01:25:10;;;;;;;1.43;1.33;;;;;;;10.59;48.21;100396.13;5028533;28;20033;-73
2022/03/31 01:27:37;;;;;;;1.40;0.93;;;;;;;10.32;49.88;100392.19;5020095;28;20034;-72
2022/03/31 01:30:14;;;;;;;1.17;1.00;;;;;;;10.30;49.22;100384.38;5026154;28;20048;-72
2022/03/31 01:32:41;;;;;;;1.00;1.00;;;;;;;10.07;51.10;100383.84;5019646;28;20034;-73
2022/03/31 01:35:07;;;;;;;0.80;0.80;;;;;;;9.78;50.45;100385.13;5027979;28;20044;-72
2022/03/31 01:37:33;;;;;;;0.70;0.70;;;;;;;10.61;48.22;100373.44;5035905;28;20025;-72
2022/03/31 01:39:59;;;;;;;0.70;0.70;;;;;;;9.76;51.07;100371.25;5034853;28;20029;-73
2022/03/31 01:42:28;;;;;;;0.70;0.70;;;;;;;9.65;51.02;100364.41;5035396;28;20087;-72
2022/03/31 01:44:55;;;;;;;1.93;1.13;;;;;;;9.97;49.94;100363.13;5033650;28;20137;-72
2022/03/31 01:47:20;;;;;;;0.57;0.57;;;;;;;11.16;47.54;100355.84;5034502;28;20033;-72
2022/03/31 01:49:46;;;;;;;0.83;0.83;;;;;;;9.33;51.73;100360.50;5034311;28;20625;-72
2022/03/31 01:52:11;;;;;;;1.27;0.93;;;;;;;9.99;51.16;100352.66;5034512;28;20111;-72
2022/03/31 01:54:37;;;;;;;1.30;1.00;;;;;;;10.89;49.38;100345.94;5035203;28;20399;-72
2022/03/31 01:57:03;;;;;;;1.07;0.70;;;;;;;8.98;53.02;100346.16;5036769;28;20503;-72
2022/03/31 01:59:36;;;;;;;1.30;1.20;;;;;;;8.92;52.81;100340.97;5032310;28;20025;-72
2022/03/31 02:02:02;;;;;;;0.70;0.70;;;;;;;9.01;52.88;100345.22;5035101;28;20041;-72
2022/03/31 02:04:28;;;;;;;1.23;0.97;;;;;;;10.12;51.09;100340.25;5034553;28;20473;-72
2022/03/31 02:06:54;;;;;;;1.20;1.10;;;;;;;9.95;50.01;100345.75;5036446;28;20036;-72
2022/03/31 02:09:19;;;;;;;1.37;0.90;;;;;;;10.07;50.41;100349.91;5034833;28;20031;-72
2022/03/31 02:11:45;;;;;;;1.17;0.93;;;;;;;9.91;50.63;100350.16;5034437;28;20025;-72
2022/03/31 02:14:15;;;;;;;1.00;0.90;;;;;;;9.32;52.58;100356.16;5034589;28;20273;-72
2022/03/31 02:16:40;;;;;;;1.33;1.13;;;;;;;9.41;51.99;100356.91;5036257;28;20033;-72
2022/03/31 02:19:06;;;;;;;1.07;0.90;;;;;;;9.08;51.58;100354.72;5033393;28;20033;-71
2022/03/31 02:21:32;;;;;;;1.77;1.27;;;;;;;10.09;49.89;100354.22;5036355;28;20142;-72
2022/03/31 02:23:58;;;;;;;1.17;1.07;;;;;;;10.13;49.82;100340.22;5035007;28;20370;-72
2022/03/31 02:26:24;;;;;;;1.20;1.10;;;;;;;9.60;50.68;100350.59;5034161;28;20036;-71
2022/03/31 02:28:49;;;;;;;4.40;1.50;;;;;;;9.36;51.29;100346.56;5034437;28;20033;-72
2022/03/31 02:31:14;;;;;;;1.60;1.20;;;;;;;10.45;49.88;100330.16;5034166;28;20032;-72
2022/03/31 02:33:40;;;;;;;2.43;1.23;;;;;;;9.99;50.41;100340.44;5035880;28;20175;-72
2022/03/31 02:36:07;;;;;;;1.23;1.10;;;;;;;10.12;50.13;100341.09;5034460;28;20087;-72
2022/03/31 02:38:34;;;;;;;1.70;1.47;;;;;;;10.06;49.13;100348.19;5032894;28;20029;-72
2022/03/31 02:41:00;;;;;;;1.47;1.27;;;;;;;9.46;50.13;100352.50;5033946;28;20041;-72
2022/03/31 02:43:25;;;;;;;2.63;1.50;;;;;;;9.76;50.19;100345.16;5036120;28;20359;-72
2022/03/31 02:45:50;;;;;;;1.80;1.43;;;;;;;10.79;47.41;100334.78;5036328;28;20063;-72
2022/03/31 02:48:16;;;;;;;2.07;1.60;;;;;;;10.66;49.01;100335.00;5029549;28;20037;-72
2022/03/31 02:50:41;;;;;;;2.23;1.60;;;;;;;9.72;50.06;100343.47;5031740;28;20113;-72
2022/03/31 02:55:50;;;;;;;4.07;1.83;;;;;;;10.43;49.08;100321.50;5032439;28;20562;-72
2022/03/31 02:58:16;;;;;;;1.60;1.47;;;;;;;10.28;48.01;100313.00;5029924;28;20068;-72
2022/03/31 03:00:41;;;;;;;2.33;1.80;;;;;;;10.07;49.88;100313.34;5031521;28;20082;-72
2022/03/31 03:03:08;;;;;;;2.67;1.77;;;;;;;10.85;47.90;100306.78;5030921;28;20124;-72
2022/03/31 03:05:34;;;;;;;1.33;1.00;;;;;;;10.04;48.81;100308.19;5030866;28;20030;-72
2022/03/31 03:08:00;;;;;;;2.17;1.30;;;;;;;9.64;50.72;100315.75;5029565;28;20040;-72
2022/03/31 03:10:25;;;;;;;2.73;1.83;;;;;;;9.72;52.00;100322.59;5030508;28;20393;-72
2022/03/31 03:12:51;;;;;;;5.60;1.20;;;;;;;9.49;52.44;100321.16;5030996;28;20033;-72
2022/03/31 03:15:17;;;;;;;2.27;1.27;;;;;;;9.44;52.98;100323.00;5064061;28;20033;-72
2022/03/31 03:17:45;;;;;;;2.37;1.53;;;;;;;9.56;51.77;100317.59;5031915;28;20036;-72
2022/03/31 03:20:13;;;;;;;1.87;1.43;;;;;;;10.52;49.46;100316.97;5029567;28;20116;-76
2022/03/31 03:22:50;;;;;;;1.53;1.23;;;;;;;9.85;50.24;100324.16;5030475;28;20049;-72
2022/03/31 03:25:18;;;;;;;2.10;1.30;;;;;;;10.33;49.14;100311.19;5032322;28;20026;-72
2022/03/31 03:27:48;;;;;;;1.47;1.37;;;;;;;10.65;49.03;100306.28;5031305;28;20487;-72
2022/03/31 03:30:17;;;;;;;1.33;1.23;;;;;;;9.68;49.81;100307.00;5017661;28;20108;-72
2022/03/31 03:32:42;;;;;;;5.03;1.70;;;;;;;10.96;48.21;100303.06;5023424;28;20033;-72
2022/03/31 03:35:09;;;;;;;1.30;1.20;;;;;;;9.94;49.69;100310.94;5030856;28;20083;-72
2022/03/31 03:37:36;;;;;;;2.53;1.43;;;;;;;10.69;48.58;100306.19;5031629;28;20048;-72
2022/03/31 03:40:04;;;;;;;3.63;1.80;;;;;;;11.06;48.51;100302.00;5029455;28;20041;-72
2022/03/31 03:42:30;;;;;;;3.93;2.33;;;;;;;11.16;46.63;100308.75;5030662;28;20044;-72
2022/03/31 03:44:56;;;;;;;7.10;2.40;;;;;;;10.68;49.46;100307.06;5025033;28;20029;-72
2022/03/31 03:47:21;;;;;;;3.63;2.37;;;;;;;10.82;48.63;100311.19;5019524;28;20053;-72
2022/03/31 03:49:47;;;;;;;5.47;1.53;;;;;;;10.58;48.52;100310.78;5030852;28;20033;-72
2022/03/31 03:52:12;;;;;;;3.77;1.90;;;;;;;11.37;47.71;100306.56;5030398;28;20433;-72
2022/03/31 03:54:38;;;;;;;2.57;1.60;;;;;;;11.38;46.42;100313.53;5031582;28;20440;-72
2022/03/31 03:57:04;;;;;;;2.67;1.97;;;;;;;12.34;44.18;100312.19;5030091;28;20484;-71
2022/03/31 03:59:29;;;;;;;3.60;1.80;;;;;;;11.78;46.13;100303.94;5029698;28;20037;-72
2022/03/31 04:01:54;;;;;;;3.97;1.90;;;;;;;12.58;44.51;100294.09;5030739;28;20109;-72
2022/03/31 04:04:20;;;;;;;2.77;1.83;;;;;;;10.97;47.69;100313.50;5026290;28;20341;-73
2022/03/31 04:06:45;;;;;;;1.27;1.17;;;;;;;9.36;51.56;100319.63;5027369;28;20034;-72
2022/03/31 04:09:10;;;;;;;1.90;1.47;;;;;;;10.34;50.04;100310.31;5026138;28;20135;-72
2022/03/31 04:11:36;;;;;;;3.53;1.90;;;;;;;11.46;47.38;100310.78;5029693;28;20040;-72
2022/03/31 04:14:01;;;;;;;2.83;1.70;;;;;;;10.69;49.19;100314.03;5032039;28;20037;-72
2022/03/31 04:16:26;;;;;;;2.17;1.47;;;;;;;10.44;49.78;100324.09;5030283;28;20127;-72
2022/03/31 04:18:52;;;;;;;2.77;1.73;;;;;;;10.74;48.31;100320.94;5027822;28;20109;-71
2022/03/31 04:21:17;;;;;;;3.10;1.90;;;;;;;10.56;51.01;100312.53;5034768;28;20045;-72
2022/03/31 04:23:42;;;;;;;4.13;2.20;;;;;;;11.56;46.52;100317.50;5013941;28;20120;-72
2022/03/31 04:26:08;;;;;;;5.60;2.10;;;;;;;11.70;47.35;100310.22;5028817;28;20079;-72
2022/03/31 04:28:34;;;;;;;1.87;1.43;;;;;;;11.23;47.29;100309.50;5027709;28;20025;-72
2022/03/31 04:30:59;;;;;;;2.27;1.60;;;;;;;10.99;48.74;100314.34;5031409;28;20033;-72
2022/03/31 04:33:26;;;;;;;2.77;1.57;;;;;;;11.14;48.85;100307.94;5029693;28;20035;-72
2022/03/31 04:35:52;;;;;;;2.50;1.50;;;;;;;10.16;49.52;100310.59;5029806;28;20527;-73
2022/03/31 04:38:17;;;;;;;2.83;1.47;;;;;;;9.99;51.49;100311.72;5030527;28;20029;-72
2022/03/31 04:40:42;;;;;;;2.77;1.77;;;;;;;11.42;47.96;100303.88;5028915;28;20026;-72
2022/03/31 04:43:08;;;;;;;1.93;1.50;;;;;;;10.30;49.13;100300.78;5029198;28;20021;-72
2022/03/31 04:45:33;;;;;;;1.80;1.20;;;;;;;10.65;49.81;100304.53;5031300;28;20446;-72
2022/03/31 04:47:58;;;;;;;7.37;2.00;;;;;;;12.03;46.75;100305.13;5028524;28;20029;-72
2022/03/31 04:50:24;;;;;;;5.47;1.43;;;;;;;11.32;48.13;100309.31;5029228;28;20033;-72
2022/03/31 04:52:49;;;;;;;5.10;1.60;;;;;;;11.20;47.88;100299.09;5030713;28;20044;-72
2022/03/31 04:55:14;;;;;;;2.70;1.20;;;;;;;11.12;49.02;100301.03;5011845;28;20032;-72
2022/03/31 04:57:40;;;;;;;2.13;1.27;;;;;;;11.61;46.81;100299.94;5027632;28;20071;-71
2022/03/31 05:00:06;;;;;;;1.60;1.30;;;;;;;12.33;45.59;100297.34;5028423;28;20044;-73
2022/03/31 05:02:31;;;;;;;4.57;1.47;;;;;;;11.80;47.20;100307.38;5028419;28;20401;-73
2022/03/31 05:04:57;;;;;;;3.53;1.70;;;;;;;12.90;44.21;100310.72;5029279;28;20017;-72
2022/03/31 05:07:22;;;;;;;1.53;1.07;;;;;;;11.92;45.34;100299.22;5025253;28;20037;-72
2022/03/31 05:09:48;;;;;;;5.00;1.93;;;;;;;12.03;45.40;100297.25;5023797;28;20053;-72
2022/03/31 05:12:13;;;;;;;1.50;1.30;;;;;;;12.23;43.64;100293.28;5023612;28;20026;-72
2022/03/31 05:14:39;;;;;;;2.43;1.60;;;;;;;12.71;43.75;100285.00;5026020;28;20176;-72
2022/03/31 05:17:05;;;;;;;5.80;1.50;;;;;;;13.25;42.99;100290.47;5026946;28;20439;-72
2022/03/31 05:19:31;;;;;;;2.37;1.67;;;;;;;12.95;43.58;100287.81;5030749;28;20025;-72
2022/03/31 05:21:57;;;;;;;5.00;1.77;;;;;;;12.60;44.26;100280.94;5018704;28;20099;-72
2022/03/31 05:24:23;;;;;;;6.43;1.87;;;;;;;13.85;41.47;100279.94;5011343;28;20034;-74
2022/03/31 05:26:52;;;;;;;5.53;1.73;;;;;;;12.77;43.64;100277.88;5027936;28;20495;-72
2022/03/31 05:29:18;;;;;;;6.07;1.93;;;;;;;12.90;42.90;100276.63;5015915;28;20061;-72
2022/03/31 05:31:43;;;;;;;6.37;2.23;;;;;;;13.21;42.79;100278.34;5031555;28;20025;-72
2022/03/31 05:34:09;;;;;;;6.00;2.80;;;;;;;13.98;41.55;100272.50;5008970;28;20036;-72
2022/03/31 05:36:34;;;;;;;2.97;1.80;;;;;;;12.99;43.66;100284.22;5012790;28;20026;-72
2022/03/31 05:38:59;;;;;;;7.30;1.67;;;;;;;13.39;42.70;100288.34;5026580;28;20025;-72
2022/03/31 05:41:25;;;;;;;4.97;1.87;;;;;;;12.22;43.90;100287.16;5028316;28;20087;-72
2022/03/31 05:43:50;;;;;;;2.43;1.37;;;;;;;12.03;44.68;100286.78;5029603;28;20055;-72
2022/03/31 05:46:16;;;;;;;2.70;1.50;;;;;;;11.54;46.85;100288.75;5023343;28;20688;-72
2022/03/31 05:48:41;;;;;;;2.00;1.40;;;;;;;11.86;46.45;100294.13;5019078;28;20037;-72
2022/03/31 05:51:07;;;;;;;1.43;1.17;;;;;;;10.55;48.53;100295.16;5025087;28;20034;-72
2022/03/31 05:53:33;;;;;;;3.50;2.27;;;;;;;11.70;46.15;100288.41;5025890;28;20049;-73
2022/03/31 05:55:58;;;;;;;6.57;3.13;;;;;;;12.19;45.01;100281.16;5024988;28;20029;-72
2022/03/31 05:58:24;;;;;;;5.03;2.43;;;;;;;12.05;45.05;100279.72;5012595;28;20506;-72
2022/03/31 06:00:52;;;;;;;6.50;2.37;;;;;;;12.03;46.23;100276.28;5010697;28;20030;-72
2022/03/31 06:03:21;;;;;;;7.03;1.90;;;;;;;11.46;46.44;100274.97;5011797;28;20079;-73
2022/03/31 06:05:46;;;;;;;2.10;1.60;;;;;;;11.23;46.68;100275.47;5035530;28;20130;-73
2022/03/31 06:08:12;;;;;;;4.30;2.47;;;;;;;11.97;44.99;100271.19;5047138;28;20076;-72
2022/03/31 06:10:37;;;;;;;2.77;1.97;;;;;;;12.29;44.10;100266.88;5031557;28;20029;-72
2022/03/31 06:13:03;;;;;;;1.90;1.37;;;;;;;11.43;46.14;100280.28;5028894;28;20040;-72
2022/03/31 06:15:28;;;;;;;3.57;1.27;;;;;;;11.34;46.77;100276.09;5028305;28;20029;-73
2022/03/31 06:17:54;;;;;;;6.23;1.30;;;;;;;11.46;46.29;100274.97;5023179;28;20033;-72
2022/03/31 06:20:19;;;;;;;2.90;1.50;;;;;;;12.22;45.05;100279.28;5026883;28;20079;-72
2022/03/31 06:22:45;;;;;;;5.63;2.50;;;;;;;12.74;44.58;100278.81;5024107;28;20061;-72
2022/03/31 06:25:11;;;;;;;2.80;1.67;;;;;;;11.47;45.79;100275.81;5014806;28;20065;-72
2022/03/31 06:27:38;;;;;;;2.10;1.70;;;;;;;12.86;43.08;100278.47;5024112;28;20029;-72
2022/03/31 06:30:04;;;;;;;2.17;1.53;;;;;;;12.35;44.93;100264.13;5026587;28;20124;-72
2022/03/31 06:32:30;;;;;;;4.07;1.50;;;;;;;12.62;43.84;100274.75;5031062;28;20067;-72
2022/03/31 06:34:55;;;;;;;5.43;1.77;;;;;;;14.06;41.60;100279.19;5031430;28;20053;-72
2022/03/31 06:37:20;;;;;;;5.60;1.23;;;;;;;11.92;45.24;100282.66;5032455;28;20271;-72
2022/03/31 06:39:46;;;;;;;2.57;1.60;;;;;;;11.93;45.05;100284.38;5031908;28;20536;-72
2022/03/31 06:42:11;;;;;;;2.27;1.77;;;;;;;10.27;49.38;100287.75;5033187;28;20099;-71
2022/03/31 06:44:37;;;;;;;2.07;1.20;;;;;;;11.88;46.04;100287.09;5030833;28;20025;-72
2022/03/31 06:47:03;;;;;;;2.70;1.50;;;;;;;12.80;44.77;100283.88;5032308;28;20105;-72
2022/03/31 06:49:28;;;;;;;2.33;1.30;;;;;;;12.83;43.41;100282.94;5031793;28;20492;-72
2022/03/31 06:51:54;;;;;;;2.97;1.67;;;;;;;12.38;44.94;100279.75;5032921;28;20053;-72
2022/03/31 06:54:20;;;;;;;5.57;1.57;;;;;;;11.17;46.54;100286.09;5028936;28;20029;-72
2022/03/31 06:56:47;;;;;;;7.07;1.73;;;;;;;12.44;44.96;100280.50;5030835;28;20116;-71
2022/03/31 06:59:12;;;;;;;4.50;1.37;;;;;;;11.28;46.31;100286.72;5045725;28;20034;-72
2022/03/31 07:01:38;;;;;;;6.63;1.70;;;;;;;11.90;45.94;100280.06;5013177;28;20059;-72
2022/03/31 07:04:06;;;;;;;2.87;1.80;;;;;;;12.33;44.63;100279.00;5062877;28;20179;-73
2022/03/31 07:06:32;;;;;;;3.50;2.00;;;;;;;12.52;44.58;100273.28;5029155;28;20128;-72
2022/03/31 07:08:57;;;;;;;4.53;2.27;;;;;;;12.90;43.81;100268.75;5029942;28;20159;-72
2022/03/31 07:11:23;;;;;;;7.23;2.40;;;;;;;12.95;43.11;100276.50;5063336;28;20045;-72
2022/03/31 07:13:49;;;;;;;6.53;2.23;;;;;;;13.66;42.56;100275.25;5032034;28;20030;-72
2022/03/31 07:16:16;;;;;;;5.10;2.73;;;;;;;14.01;42.38;100260.13;5027841;28;20018;-72
2022/03/31 07:18:42;;;;;;;6.17;2.87;;;;;;;13.42;42.85;100276.00;5031701;28;20033;-72
2022/03/31 07:21:08;;;;;;;11.40;4.33;;;;;;;13.25;44.14;100279.97;5028240;28;20026;-72
2022/03/31 07:23:33;;;;;;;8.57;4.13;;;;;;;12.90;44.49;100280.09;5013410;28;20032;-73
2022/03/31 07:26:00;;;;;;;4.63;2.63;;;;;;;10.97;47.10;100282.13;5046284;28;20077;-72
2022/03/31 07:28:25;;;;;;;8.67;4.03;;;;;;;13.27;44.38;100283.44;5029748;28;20052;-72
2022/03/31 07:30:52;;;;;;;8.90;4.70;;;;;;;12.87;44.98;100284.56;5016862;28;20030;-72
2022/03/31 07:33:20;;;;;;;9.67;3.80;;;;;;;12.67;43.98;100282.50;5020204;28;20469;-71
2022/03/31 07:35:47;;;;;;;4.37;2.47;;;;;;;13.78;42.47;100284.50;5028312;28;20037;-72
2022/03/31 07:38:13;;;;;;;9.03;4.10;;;;;;;12.72;44.69;100284.09;4976438;28;20383;-72
2022/03/31 07:40:39;;;;;;;7.10;2.83;;;;;;;12.12;44.96;100285.69;5023267;28;20495;-71
2022/03/31 07:43:05;;;;;;;7.63;4.03;;;;;;;12.60;44.46;100280.94;5021663;28;20037;-72
2022/03/31 07:45:34;;;;;;;7.53;2.30;;;;;;;12.95;43.77;100272.09;5023707;28;20029;-72
2022/03/31 07:48:00;;;;;;;17.70;7.17;;;;;;;12.20;43.96;100277.63;5019681;28;20029;-71
2022/03/31 07:50:25;;;;;;;4.57;1.97;;;;;;;11.49;44.95;100274.06;5026129;28;20037;-72
2022/03/31 07:52:50;;;;;;;6.00;2.13;;;;;;;12.61;44.34;100262.56;5023926;28;20033;-72
2022/03/31 07:55:17;;;;;;;28.33;6.37;;;;;;;11.16;46.06;100274.75;5027389;28;20481;-72
2022/03/31 07:57:44;;;;;;;5.90;2.23;;;;;;;11.05;45.62;100273.28;5023459;28;20048;-71
2022/03/31 08:00:11;;;;;;;4.43;2.53;;;;;;;11.76;45.29;100271.69;5027124;28;20485;-71
2022/03/31 08:02:42;;;;;;;4.90;2.00;;;;;;;13.22;42.33;100264.31;5016002;28;20033;-71
2022/03/31 08:05:09;;;;;;;5.83;1.73;;;;;;;12.18;44.43;100263.69;5021785;28;20034;-71
2022/03/31 08:07:35;;;;;;;3.63;2.00;;;;;;;12.10;44.90;100260.41;5028878;28;20125;-71
2022/03/31 08:10:01;;;;;;;3.30;1.93;;;;;;;11.85;44.85;100263.59;5028859;28;20060;-71
2022/03/31 08:12:27;;;;;;;2.37;1.70;;;;;;;13.85;41.32;100258.91;5012850;28;20034;-70
2022/03/31 08:14:52;;;;;;;4.10;1.87;;;;;;;12.94;42.81;100259.91;5023931;28;20030;-72
2022/03/31 08:17:19;;;;;;;2.43;1.83;;;;;;;12.78;42.06;100258.63;5019344;28;20116;-71
2022/03/31 08:19:45;;;;;;;4.83;2.00;;;;;;;13.20;42.70;100260.88;5007511;28;20045;-72
2022/03/31 08:22:11;;;;;;;2.63;1.80;;;;;;;12.81;43.15;100264.63;5020504;28;20096;-71
2022/03/31 08:24:37;;;;;;;5.97;2.20;;;;;;;14.14;41.10;100257.09;5050560;28;20041;-71
2022/03/31 08:27:03;;;;;;;3.13;2.43;;;;;;;13.18;42.91;100263.53;5026076;28;20052;-71
2022/03/31 08:29:29;;;;;;;12.87;2.97;;;;;;;12.75;43.70;100269.16;5011372;28;20045;-71
2022/03/31 08:31:55;;;;;;;4.73;2.30;;;;;;;12.28;43.96;100259.94;5029213;28;20032;-71
2022/03/31 08:34:21;;;;;;;3.43;2.17;;;;;;;12.20;45.42;100254.06;5028297;28;20029;-71
2022/03/31 08:36:47;;;;;;;4.07;2.63;;;;;;;12.61;43.01;100257.31;5024236;28;20036;-72
2022/03/31 08:39:12;;;;;;;7.60;3.10;;;;;;;12.99;42.98;100252.72;5021116;28;20106;-71
2022/03/31 08:41:37;;;;;;;4.73;2.20;;;;;;;12.33;44.58;100262.44;5024631;28;20096;-71
2022/03/31 08:44:03;;;;;;;4.40;3.10;;;;;;;12.98;43.55;100258.91;5030772;28;20385;-71
2022/03/31 08:46:32;;;;;;;4.10;2.30;;;;;;;13.14;42.80;100255.81;5026908;28;20394;-71
2022/03/31 08:48:57;;;;;;;1.90;1.70;;;;;;;12.44;43.42;100259.53;5021285;28;20025;-71
2022/03/31 08:51:23;;;;;;;3.83;2.47;;;;;;;13.39;42.57;100258.59;5019995;28;20038;-71
2022/03/31 08:53:49;;;;;;;4.17;2.57;;;;;;;12.53;43.86;100261.91;5012342;28;20026;-70
2022/03/31 08:56:15;;;;;;;4.30;2.20;;;;;;;12.97;42.51;100258.91;5027678;28;20088;-71
2022/03/31 08:58:43;;;;;;;2.27;2.07;;;;;;;13.89;41.60;100240.34;5029178;28;20432;-71
2022/03/31 09:01:11;;;;;;;3.20;2.73;;;;;;;13.87;40.43;100241.31;5011280;28;20030;-72
2022/03/31 09:03:38;;;;;;;4.57;2.33;;;;;;;14.34;40.15;100236.22;5018739;28;20020;-72
2022/03/31 09:06:09;;;;;;;4.77;2.50;;;;;;;14.83;39.20;100238.03;5027379;28;20025;-72
2022/03/31 09:08:35;;;;;;;4.20;2.37;;;;;;;13.02;41.85;100255.28;5017482;28;20029;-71
2022/03/31 09:11:03;;;;;;;5.00;2.70;;;;;;;12.95;42.85;100253.72;5028659;28;20121;-71
2022/03/31 09:13:32;;;;;;;3.97;2.77;;;;;;;13.29;41.85;100250.09;5028679;28;20022;-71
2022/03/31 09:16:01;;;;;;;2.33;1.53;;;;;;;12.25;42.30;100244.28;5032236;28;20025;-70
2022/03/31 09:18:29;;;;;;;4.27;2.03;;;;;;;12.26;43.67;100240.78;5015591;28;20366;-71
2022/03/31 09:20:57;;;;;;;3.70;1.97;;;;;;;13.13;41.87;100254.09;5025385;28;20079;-71
2022/03/31 09:23:39;;;;;;;4.77;2.90;;;;;;;13.61;41.59;100244.78;5024398;28;20087;-71
2022/03/31 09:26:12;;;;;;;4.73;2.60;;;;;;;14.59;40.07;100245.88;5025725;28;20387;-69
2022/03/31 09:28:38;;;;;;;3.63;2.42;;;;;;;13.72;40.79;100250.56;5026259;28;20091;-70
2022/03/31 09:31:06;;;;;;;2.80;2.40;;;;;;;12.91;42.44;100252.09;5039916;28;20385;-71
2022/03/31 09:33:34;;;;;;;4.57;2.23;;;;;;;13.18;42.26;100257.44;5023703;28;20484;-72
2022/03/31 09:36:05;;;;;;;2.83;2.10;;;;;;;12.15;43.79;100253.31;5019601;28;20117;-71
2022/03/31 09:38:35;;;;;;;3.73;2.27;;;;;;;14.28;40.39;100246.94;5019741;28;20449;-71
2022/03/31 09:41:03;;;;;;;2.70;1.93;;;;;;;12.86;41.85;100251.38;5030631;28;20408;-71
2022/03/31 09:43:37;;;;;;;2.93;2.00;;;;;;;12.88;42.48;100255.66;5036593;28;20040;-71
2022/03/31 09:46:02;;;;;;;2.10;1.87;;;;;;;14.40;39.36;100241.25;5024605;28;20370;-71
2022/03/31 09:48:28;;;;;;;2.90;1.87;;;;;;;14.04;39.76;100240.75;5022163;28;20034;-72
2022/03/31 09:50:53;;;;;;;4.97;1.87;;;;;;;12.89;41.58;100251.28;5026677;28;20017;-72
2022/03/31 09:53:19;;;;;;;1.80;1.67;;;;;;;13.33;41.25;100246.47;5026070;28;20116;-71
2022/03/31 09:55:45;;;;;;;3.53;2.30;;;;;;;13.51;40.93;100254.72;5018187;28;20021;-72
2022/03/31 09:58:18;;;;;;;20.30;2.43;;;;;;;14.11;39.69;100238.78;5017601;28;20022;-73
2022/03/31 10:00:44;;;;;;;2.10;1.83;;;;;;;13.25;40.46;100243.22;5029614;28;20065;-72
2022/03/31 10:03:20;;;;;;;2.27;1.93;;;;;;;13.92;39.69;100234.16;5021397;28;20021;-73
2022/03/31 10:05:47;;;;;;;3.33;2.20;;;;;;;14.18;39.64;100230.63;5017506;28;20036;-73
2022/03/31 10:08:13;;;;;;;2.80;1.80;;;;;;;13.34;40.56;100240.34;5027733;28;20056;-73
2022/03/31 10:10:40;;;;;;;2.47;2.13;;;;;;;13.88;40.13;100229.91;5030412;28;20044;-73
2022/03/31 10:13:18;;;;;;;3.20;2.47;;;;;;;14.60;39.23;100231.78;5027354;28;20029;-73
2022/03/31 10:15:46;;;;;;;2.60;2.23;;;;;;;14.15;40.45;100229.88;5030949;28;20503;-73
2022/03/31 10:18:13;;;;;;;2.80;2.50;;;;;;;14.53;40.18;100227.66;5018386;28;20033;-73
2022/03/31 10:20:38;;;;;;;2.87;2.37;;;;;;;15.30;38.36;100227.44;5019534;28;20028;-73
2022/03/31 10:25:49;;;;;;;2.63;2.17;;;;;;;13.90;41.39;100236.84;5011033;28;20099;-73
2022/03/31 10:28:23;;;;;;;2.33;2.00;;;;;;;13.30;42.16;100237.81;5022447;28;20025;-73
2022/03/31 10:31:07;;;;;;;2.73;2.33;;;;;;;13.96;39.87;100234.88;5055998;28;20052;-73
2022/03/31 10:33:38;;;;;;;3.00;2.23;;;;;;;13.44;41.21;100237.47;5028250;28;20525;-73
2022/03/31 10:36:12;;;;;;;4.67;2.23;;;;;;;13.87;41.11;100230.81;5025947;28;20385;-73
2022/03/31 10:38:50;;;;;;;8.27;3.17;;;;;;;14.27;40.28;100229.44;5028590;28;20104;-71
2022/03/31 10:41:17;;;;;;;7.13;3.10;;;;;;;14.56;39.32;100225.78;5025292;28;20033;-73
2022/03/31 10:43:47;;;;;;;7.90;4.23;;;;;;;14.89;38.41;100219.34;5026224;28;20063;-72
2022/03/31 10:46:22;;;;;;;4.27;1.97;;;;;;;14.23;39.69;100218.19;5027274;28;20573;-73
2022/03/31 10:48:53;;;;;;;4.63;2.60;;;;;;;13.48;42.40;100218.09;5030952;28;20555;-73
2022/03/31 10:51:37;;;;;;;3.07;2.40;;;;;;;15.47;38.89;100218.00;5055740;28;20109;-73
2022/03/31 10:54:04;;;;;;;5.20;2.50;;;;;;;14.70;39.43;100221.81;5026763;28;20026;-71
2022/03/31 10:56:31;;;;;;;4.33;2.50;;;;;;;14.24;40.09;100213.78;5022373;28;20060;-73
2022/03/31 10:59:01;;;;;;;2.90;2.37;;;;;;;14.41;39.55;100215.81;5027706;28;20048;-73
2022/03/31 11:01:30;;;;;;;3.57;2.63;;;;;;;15.48;37.52;100203.94;5024007;28;20045;-73
2022/03/31 11:04:21;;;;;;;2.53;2.10;;;;;;;15.83;37.13;100210.41;5062238;28;20367;-73
2022/03/31 11:06:48;;;;;;;3.90;2.53;;;;;;;16.17;36.19;100202.84;5051315;28;20040;-73
2022/03/31 11:09:29;;;;;;;4.07;3.07;;;;;;;14.28;38.30;100210.13;5024719;28;20037;-73
2022/03/31 11:11:59;;;;;;;5.53;3.10;;;;;;;14.74;39.26;100212.91;5042610;28;20120;-73
2022/03/31 11:14:25;;;;;;;4.47;2.90;;;;;;;14.89;38.58;100206.19;5026479;28;20382;-73
2022/03/31 11:16:50;;;;;;;5.43;3.63;;;;;;;14.95;38.47;100207.75;5052822;28;20029;-74
2022/03/31 11:19:19;;;;;;;4.30;3.07;;;;;;;14.60;39.16;100210.75;5030680;28;20484;-72
2022/03/31 11:21:44;;;;;;;5.03;3.00;;;;;;;14.63;39.01;100210.69;5026881;28;20050;-73
2022/03/31 11:24:10;;;;;;;4.50;2.63;;;;;;;14.19;38.72;100207.81;5019659;28;20028;-73
2022/03/31 11:26:40;;;;;;;3.47;2.80;;;;;;;14.46;39.37;100207.78;5029146;28;20017;-72
2022/03/31 11:29:11;;;;;;;4.27;3.23;;;;;;;15.26;38.27;100189.84;5015750;28;20022;-71
2022/03/31 11:31:37;;;;;;;2.87;2.37;;;;;;;13.27;40.99;100204.69;5014602;28;20025;-72
2022/03/31 11:34:02;;;;;;;4.30;3.30;;;;;;;14.63;39.39;100194.91;5042408;28;20087;-73